sensor_id;sensor_type;location;lat;lon;timestamp;P1;durP1;ratioP1;P2;durP2;ratioP2
20365;SDS011;10341;49.894;8.822;2023-12-20T00:03:28;7.50;;;3.85;;
20365;SDS011;10341;49.894;8.822;2023-12-20T00:08:47;5.22;;;3.70;;
20365;SDS011;10341;49.894;8.822;2023-12-20T00:14:07;5.38;;;3.90;;
20365;SDS011;10341;49.894;8.822;2023-12-20T00:19:26;5.47;;;3.72;;
20365;SDS011;10341;49.894;8.822;2023-12-20T00:24:45;5.30;;;4.00;;
20365;SDS011;10341;49.894;8.822;2023-12-20T00:30:04;6.67;;;3.70;;
20365;SDS011;10341;49.894;8.822;2023-12-20T00:35:24;5.03;;;3.60;;
20365;SDS011;10341;49.894;8.822;2023-12-20T00:40:44;5.78;;;3.88;;
20365;SDS011;10341;49.894;8.822;2023-12-20T00:46:03;5.00;;;3.37;;
20365;SDS011;10341;49.894;8.822;2023-12-20T00:51:22;6.03;;;4.13;;
20365;SDS011;10341;49.894;8.822;2023-12-20T00:56:41;5.03;;;3.75;;
20365;SDS011;10341;49.894;8.822;2023-12-20T01:02:01;5.97;;;4.10;;
20365;SDS011;10341;49.894;8.822;2023-12-20T01:07:20;5.43;;;3.75;;
20365;SDS011;10341;49.894;8.822;2023-12-20T01:12:40;5.63;;;3.72;;
20365;SDS011;10341;49.894;8.822;2023-12-20T01:17:59;7.15;;;3.92;;
20365;SDS011;10341;49.894;8.822;2023-12-20T01:23:18;5.38;;;3.63;;
20365;SDS011;10341;49.894;8.822;2023-12-20T01:28:38;6.30;;;3.90;;
20365;SDS011;10341;49.894;8.822;2023-12-20T01:33:57;5.28;;;3.53;;
20365;SDS011;10341;49.894;8.822;2023-12-20T01:39:17;5.93;;;4.10;;
20365;SDS011;10341;49.894;8.822;2023-12-20T01:44:36;5.70;;;3.90;;
20365;SDS011;10341;49.894;8.822;2023-12-20T01:49:56;4.82;;;3.25;;
20365;SDS011;10341;49.894;8.822;2023-12-20T01:55:15;5.80;;;3.60;;
20365;SDS011;10341;49.894;8.822;2023-12-20T02:00:35;4.45;;;3.03;;
20365;SDS011;10341;49.894;8.822;2023-12-20T02:05:55;5.55;;;3.45;;
20365;SDS011;10341;49.894;8.822;2023-12-20T02:11:14;4.55;;;3.15;;
20365;SDS011;10341;49.894;8.822;2023-12-20T02:16:34;6.47;;;3.35;;
20365;SDS011;10341;49.894;8.822;2023-12-20T02:27:29;3.70;;;2.45;;
20365;SDS011;10341;49.894;8.822;2023-12-20T02:38:08;3.55;;;2.53;;
20365;SDS011;10341;49.894;8.822;2023-12-20T02:43:27;5.43;;;2.80;;
20365;SDS011;10341;49.894;8.822;2023-12-20T02:48:46;4.68;;;3.03;;
20365;SDS011;10341;49.894;8.822;2023-12-20T02:54:06;3.55;;;2.45;;
20365;SDS011;10341;49.894;8.822;2023-12-20T02:59:25;3.30;;;2.43;;
20365;SDS011;10341;49.894;8.822;2023-12-20T03:04:44;3.70;;;2.60;;
20365;SDS011;10341;49.894;8.822;2023-12-20T03:10:03;2.90;;;2.10;;
20365;SDS011;10341;49.894;8.822;2023-12-20T03:15:23;4.47;;;2.38;;
20365;SDS011;10341;49.894;8.822;2023-12-20T03:26:02;3.53;;;2.28;;
20365;SDS011;10341;49.894;8.822;2023-12-20T03:31:21;3.97;;;2.75;;
20365;SDS011;10341;49.894;8.822;2023-12-20T03:36:41;4.45;;;2.58;;
20365;SDS011;10341;49.894;8.822;2023-12-20T03:42:00;4.03;;;2.60;;
20365;SDS011;10341;49.894;8.822;2023-12-20T03:47:19;3.47;;;2.63;;
20365;SDS011;10341;49.894;8.822;2023-12-20T03:52:38;3.45;;;2.50;;
20365;SDS011;10341;49.894;8.822;2023-12-20T03:57:58;3.38;;;2.45;;
20365;SDS011;10341;49.894;8.822;2023-12-20T04:03:17;3.92;;;2.70;;
20365;SDS011;10341;49.894;8.822;2023-12-20T04:08:37;3.03;;;2.65;;
20365;SDS011;10341;49.894;8.822;2023-12-20T04:13:56;3.97;;;2.40;;
20365;SDS011;10341;49.894;8.822;2023-12-20T04:19:15;3.17;;;2.42;;
20365;SDS011;10341;49.894;8.822;2023-12-20T04:24:34;3.33;;;2.50;;
20365;SDS011;10341;49.894;8.822;2023-12-20T04:29:54;3.55;;;2.60;;
20365;SDS011;10341;49.894;8.822;2023-12-20T04:35:13;3.77;;;2.40;;
20365;SDS011;10341;49.894;8.822;2023-12-20T04:40:32;3.30;;;2.47;;
20365;SDS011;10341;49.894;8.822;2023-12-20T04:51:11;4.70;;;2.60;;
20365;SDS011;10341;49.894;8.822;2023-12-20T04:56:30;5.27;;;2.50;;
20365;SDS011;10341;49.894;8.822;2023-12-20T05:01:49;4.10;;;2.67;;
20365;SDS011;10341;49.894;8.822;2023-12-20T05:07:08;4.60;;;3.20;;
20365;SDS011;10341;49.894;8.822;2023-12-20T05:12:27;4.97;;;3.10;;
20365;SDS011;10341;49.894;8.822;2023-12-20T05:17:46;3.93;;;2.73;;
20365;SDS011;10341;49.894;8.822;2023-12-20T05:23:05;3.72;;;2.80;;
20365;SDS011;10341;49.894;8.822;2023-12-20T05:33:44;4.72;;;2.40;;
20365;SDS011;10341;49.894;8.822;2023-12-20T05:39:03;4.25;;;2.70;;
20365;SDS011;10341;49.894;8.822;2023-12-20T05:44:22;4.25;;;2.20;;
20365;SDS011;10341;49.894;8.822;2023-12-20T05:49:42;5.22;;;2.45;;
20365;SDS011;10341;49.894;8.822;2023-12-20T05:55:02;4.05;;;2.22;;
20365;SDS011;10341;49.894;8.822;2023-12-20T06:00:22;2.63;;;1.98;;
20365;SDS011;10341;49.894;8.822;2023-12-20T06:05:41;7.07;;;1.90;;
20365;SDS011;10341;49.894;8.822;2023-12-20T06:11:00;7.35;;;2.13;;
20365;SDS011;10341;49.894;8.822;2023-12-20T06:16:19;3.10;;;1.88;;
20365;SDS011;10341;49.894;8.822;2023-12-20T06:21:39;2.72;;;2.10;;
20365;SDS011;10341;49.894;8.822;2023-12-20T06:26:58;3.65;;;2.25;;
20365;SDS011;10341;49.894;8.822;2023-12-20T06:32:17;4.68;;;2.15;;
20365;SDS011;10341;49.894;8.822;2023-12-20T06:37:36;5.18;;;3.20;;
20365;SDS011;10341;49.894;8.822;2023-12-20T06:42:55;6.93;;;3.40;;
20365;SDS011;10341;49.894;8.822;2023-12-20T06:48:14;6.45;;;3.00;;
20365;SDS011;10341;49.894;8.822;2023-12-20T06:53:33;5.53;;;3.10;;
20365;SDS011;10341;49.894;8.822;2023-12-20T06:58:52;7.43;;;3.28;;
20365;SDS011;10341;49.894;8.822;2023-12-20T07:04:12;4.50;;;2.85;;
20365;SDS011;10341;49.894;8.822;2023-12-20T07:09:31;5.85;;;3.03;;
20365;SDS011;10341;49.894;8.822;2023-12-20T07:20:10;5.10;;;2.92;;
20365;SDS011;10341;49.894;8.822;2023-12-20T07:30:51;4.88;;;2.83;;
20365;SDS011;10341;49.894;8.822;2023-12-20T07:36:11;5.63;;;2.55;;
20365;SDS011;10341;49.894;8.822;2023-12-20T07:41:31;12.98;;;2.85;;
20365;SDS011;10341;49.894;8.822;2023-12-20T07:46:50;6.15;;;2.20;;
20365;SDS011;10341;49.894;8.822;2023-12-20T07:52:09;4.45;;;2.33;;
20365;SDS011;10341;49.894;8.822;2023-12-20T07:57:28;4.10;;;1.90;;
20365;SDS011;10341;49.894;8.822;2023-12-20T08:02:48;5.15;;;1.48;;
20365;SDS011;10341;49.894;8.822;2023-12-20T08:08:08;5.43;;;1.73;;
20365;SDS011;10341;49.894;8.822;2023-12-20T08:13:27;5.03;;;2.07;;
20365;SDS011;10341;49.894;8.822;2023-12-20T08:18:47;2.33;;;1.20;;
20365;SDS011;10341;49.894;8.822;2023-12-20T08:24:06;3.00;;;1.30;;
20365;SDS011;10341;49.894;8.822;2023-12-20T08:29:26;4.85;;;1.80;;
20365;SDS011;10341;49.894;8.822;2023-12-20T08:34:45;5.77;;;1.80;;
20365;SDS011;10341;49.894;8.822;2023-12-20T08:40:05;1.73;;;1.40;;
20365;SDS011;10341;49.894;8.822;2023-12-20T08:45:25;5.35;;;1.83;;
20365;SDS011;10341;49.894;8.822;2023-12-20T08:50:44;7.67;;;1.70;;
20365;SDS011;10341;49.894;8.822;2023-12-20T08:56:04;3.97;;;1.20;;
20365;SDS011;10341;49.894;8.822;2023-12-20T09:06:43;4.30;;;1.90;;
20365;SDS011;10341;49.894;8.822;2023-12-20T09:12:03;6.10;;;1.67;;
20365;SDS011;10341;49.894;8.822;2023-12-20T09:17:22;3.40;;;1.40;;
20365;SDS011;10341;49.894;8.822;2023-12-20T09:22:42;3.50;;;1.50;;
20365;SDS011;10341;49.894;8.822;2023-12-20T09:28:01;6.97;;;2.25;;
20365;SDS011;10341;49.894;8.822;2023-12-20T09:33:21;4.18;;;1.63;;
20365;SDS011;10341;49.894;8.822;2023-12-20T09:38:41;5.13;;;1.75;;
20365;SDS011;10341;49.894;8.822;2023-12-20T09:44:01;6.22;;;2.03;;
20365;SDS011;10341;49.894;8.822;2023-12-20T09:49:21;7.70;;;2.00;;
20365;SDS011;10341;49.894;8.822;2023-12-20T09:54:41;5.18;;;1.77;;
20365;SDS011;10341;49.894;8.822;2023-12-20T10:00:02;3.88;;;1.75;;
20365;SDS011;10341;49.894;8.822;2023-12-20T10:05:31;7.57;;;2.22;;
20365;SDS011;10341;49.894;8.822;2023-12-20T10:10:51;4.95;;;1.90;;
20365;SDS011;10341;49.894;8.822;2023-12-20T10:16:11;5.45;;;2.15;;
20365;SDS011;10341;49.894;8.822;2023-12-20T10:21:30;4.95;;;2.53;;
20365;SDS011;10341;49.894;8.822;2023-12-20T10:27:00;3.00;;;1.70;;
20365;SDS011;10341;49.894;8.822;2023-12-20T10:32:26;6.88;;;2.30;;
20365;SDS011;10341;49.894;8.822;2023-12-20T10:37:46;7.30;;;2.78;;
20365;SDS011;10341;49.894;8.822;2023-12-20T10:43:06;5.10;;;1.90;;
20365;SDS011;10341;49.894;8.822;2023-12-20T10:48:28;8.77;;;2.92;;
20365;SDS011;10341;49.894;8.822;2023-12-20T10:53:49;5.85;;;2.67;;
20365;SDS011;10341;49.894;8.822;2023-12-20T10:59:12;4.18;;;2.17;;
20365;SDS011;10341;49.894;8.822;2023-12-20T11:10:29;6.65;;;1.98;;
20365;SDS011;10341;49.894;8.822;2023-12-20T11:16:10;5.68;;;1.58;;
20365;SDS011;10341;49.894;8.822;2023-12-20T11:21:29;12.20;;;2.35;;
20365;SDS011;10341;49.894;8.822;2023-12-20T11:26:48;8.52;;;2.03;;
20365;SDS011;10341;49.894;8.822;2023-12-20T11:32:28;5.68;;;1.63;;
20365;SDS011;10341;49.894;8.822;2023-12-20T11:37:47;5.95;;;1.63;;
20365;SDS011;10341;49.894;8.822;2023-12-20T11:43:06;3.72;;;1.33;;
20365;SDS011;10341;49.894;8.822;2023-12-20T11:48:26;8.73;;;1.90;;
20365;SDS011;10341;49.894;8.822;2023-12-20T11:53:50;3.67;;;1.58;;
20365;SDS011;10341;49.894;8.822;2023-12-20T11:59:11;4.07;;;1.88;;
20365;SDS011;10341;49.894;8.822;2023-12-20T12:04:31;9.23;;;2.22;;
20365;SDS011;10341;49.894;8.822;2023-12-20T12:09:51;8.30;;;2.45;;
20365;SDS011;10341;49.894;8.822;2023-12-20T12:15:10;4.68;;;1.92;;
20365;SDS011;10341;49.894;8.822;2023-12-20T12:20:30;11.05;;;2.15;;
20365;SDS011;10341;49.894;8.822;2023-12-20T12:25:49;8.35;;;2.13;;
20365;SDS011;10341;49.894;8.822;2023-12-20T12:31:09;7.07;;;2.60;;
20365;SDS011;10341;49.894;8.822;2023-12-20T12:36:34;5.85;;;2.17;;
20365;SDS011;10341;49.894;8.822;2023-12-20T12:41:54;5.20;;;2.00;;
20365;SDS011;10341;49.894;8.822;2023-12-20T12:47:12;5.30;;;1.90;;
20365;SDS011;10341;49.894;8.822;2023-12-20T12:52:31;7.47;;;1.70;;
20365;SDS011;10341;49.894;8.822;2023-12-20T12:57:51;4.30;;;2.10;;
20365;SDS011;10341;49.894;8.822;2023-12-20T13:03:10;5.63;;;2.00;;
20365;SDS011;10341;49.894;8.822;2023-12-20T13:08:29;4.17;;;2.00;;
20365;SDS011;10341;49.894;8.822;2023-12-20T13:13:49;5.63;;;2.20;;
20365;SDS011;10341;49.894;8.822;2023-12-20T13:19:10;8.10;;;2.80;;
20365;SDS011;10341;49.894;8.822;2023-12-20T13:24:29;5.10;;;1.93;;
20365;SDS011;10341;49.894;8.822;2023-12-20T13:29:48;10.10;;;2.30;;
20365;SDS011;10341;49.894;8.822;2023-12-20T13:35:07;10.30;;;2.38;;
20365;SDS011;10341;49.894;8.822;2023-12-20T13:40:27;5.70;;;2.20;;
20365;SDS011;10341;49.894;8.822;2023-12-20T13:45:47;6.18;;;2.30;;
20365;SDS011;10341;49.894;8.822;2023-12-20T13:51:07;5.03;;;2.00;;
20365;SDS011;10341;49.894;8.822;2023-12-20T13:56:26;5.80;;;1.97;;
20365;SDS011;10341;49.894;8.822;2023-12-20T14:01:46;8.75;;;2.00;;
20365;SDS011;10341;49.894;8.822;2023-12-20T14:07:05;7.03;;;2.10;;
20365;SDS011;10341;49.894;8.822;2023-12-20T14:12:26;7.43;;;3.38;;
20365;SDS011;10341;49.894;8.822;2023-12-20T14:17:45;4.83;;;2.17;;
20365;SDS011;10341;49.894;8.822;2023-12-20T14:23:04;9.07;;;2.60;;
20365;SDS011;10341;49.894;8.822;2023-12-20T14:28:24;5.10;;;1.83;;
20365;SDS011;10341;49.894;8.822;2023-12-20T14:33:42;8.10;;;2.42;;
20365;SDS011;10341;49.894;8.822;2023-12-20T14:39:01;3.60;;;1.87;;
20365;SDS011;10341;49.894;8.822;2023-12-20T14:44:22;5.15;;;1.95;;
20365;SDS011;10341;49.894;8.822;2023-12-20T14:49:41;4.90;;;1.48;;
20365;SDS011;10341;49.894;8.822;2023-12-20T14:55:01;5.90;;;1.53;;
20365;SDS011;10341;49.894;8.822;2023-12-20T15:00:23;6.82;;;1.50;;
20365;SDS011;10341;49.894;8.822;2023-12-20T15:05:42;4.38;;;1.58;;
20365;SDS011;10341;49.894;8.822;2023-12-20T15:11:02;4.82;;;1.83;;
20365;SDS011;10341;49.894;8.822;2023-12-20T15:16:22;9.52;;;1.65;;
20365;SDS011;10341;49.894;8.822;2023-12-20T15:21:42;5.88;;;1.60;;
20365;SDS011;10341;49.894;8.822;2023-12-20T15:27:02;5.68;;;1.67;;
20365;SDS011;10341;49.894;8.822;2023-12-20T15:32:22;5.28;;;1.38;;
20365;SDS011;10341;49.894;8.822;2023-12-20T15:37:42;5.03;;;1.65;;
20365;SDS011;10341;49.894;8.822;2023-12-20T15:43:01;5.68;;;1.75;;
20365;SDS011;10341;49.894;8.822;2023-12-20T15:48:20;4.80;;;1.80;;
20365;SDS011;10341;49.894;8.822;2023-12-20T15:53:40;7.50;;;1.47;;
20365;SDS011;10341;49.894;8.822;2023-12-20T15:58:59;4.78;;;1.33;;
20365;SDS011;10341;49.894;8.822;2023-12-20T16:04:19;4.55;;;1.50;;
20365;SDS011;10341;49.894;8.822;2023-12-20T16:09:38;15.05;;;4.85;;
20365;SDS011;10341;49.894;8.822;2023-12-20T16:14:57;3.70;;;1.60;;
20365;SDS011;10341;49.894;8.822;2023-12-20T16:20:17;5.50;;;1.48;;
20365;SDS011;10341;49.894;8.822;2023-12-20T16:25:36;9.90;;;2.33;;
20365;SDS011;10341;49.894;8.822;2023-12-20T16:30:56;8.23;;;2.42;;
20365;SDS011;10341;49.894;8.822;2023-12-20T16:36:16;9.38;;;2.42;;
20365;SDS011;10341;49.894;8.822;2023-12-20T16:41:35;7.90;;;2.83;;
20365;SDS011;10341;49.894;8.822;2023-12-20T16:46:54;10.10;;;2.40;;
20365;SDS011;10341;49.894;8.822;2023-12-20T16:52:13;7.75;;;1.88;;
20365;SDS011;10341;49.894;8.822;2023-12-20T16:57:33;7.47;;;2.25;;
20365;SDS011;10341;49.894;8.822;2023-12-20T17:02:52;6.90;;;2.13;;
20365;SDS011;10341;49.894;8.822;2023-12-20T17:08:11;12.43;;;2.47;;
20365;SDS011;10341;49.894;8.822;2023-12-20T17:13:30;9.48;;;2.28;;
20365;SDS011;10341;49.894;8.822;2023-12-20T17:18:49;7.93;;;2.83;;
20365;SDS011;10341;49.894;8.822;2023-12-20T17:24:08;9.40;;;2.57;;
20365;SDS011;10341;49.894;8.822;2023-12-20T17:29:28;4.33;;;1.90;;
20365;SDS011;10341;49.894;8.822;2023-12-20T17:34:47;4.43;;;2.10;;
20365;SDS011;10341;49.894;8.822;2023-12-20T17:40:07;5.13;;;2.00;;
20365;SDS011;10341;49.894;8.822;2023-12-20T17:45:27;4.70;;;1.90;;
20365;SDS011;10341;49.894;8.822;2023-12-20T17:50:47;9.85;;;2.38;;
20365;SDS011;10341;49.894;8.822;2023-12-20T17:56:07;4.80;;;2.03;;
20365;SDS011;10341;49.894;8.822;2023-12-20T18:01:26;7.57;;;2.37;;
20365;SDS011;10341;49.894;8.822;2023-12-20T18:06:45;7.00;;;2.30;;
20365;SDS011;10341;49.894;8.822;2023-12-20T18:12:05;7.82;;;2.40;;
20365;SDS011;10341;49.894;8.822;2023-12-20T18:17:26;6.32;;;2.60;;
20365;SDS011;10341;49.894;8.822;2023-12-20T18:22:46;8.07;;;2.42;;
20365;SDS011;10341;49.894;8.822;2023-12-20T18:28:05;7.70;;;2.10;;
20365;SDS011;10341;49.894;8.822;2023-12-20T18:33:24;11.67;;;3.40;;
20365;SDS011;10341;49.894;8.822;2023-12-20T18:38:43;7.77;;;2.30;;
20365;SDS011;10341;49.894;8.822;2023-12-20T18:44:03;6.30;;;2.60;;
20365;SDS011;10341;49.894;8.822;2023-12-20T18:49:22;7.40;;;2.57;;
20365;SDS011;10341;49.894;8.822;2023-12-20T18:54:42;8.45;;;2.90;;
20365;SDS011;10341;49.894;8.822;2023-12-20T19:00:01;7.50;;;2.97;;
20365;SDS011;10341;49.894;8.822;2023-12-20T19:05:21;7.43;;;2.67;;
20365;SDS011;10341;49.894;8.822;2023-12-20T19:10:40;4.97;;;2.20;;
20365;SDS011;10341;49.894;8.822;2023-12-20T19:16:00;6.77;;;2.50;;
20365;SDS011;10341;49.894;8.822;2023-12-20T19:21:21;9.15;;;2.60;;
20365;SDS011;10341;49.894;8.822;2023-12-20T19:26:40;4.00;;;2.17;;
20365;SDS011;10341;49.894;8.822;2023-12-20T19:31:59;7.47;;;2.35;;
20365;SDS011;10341;49.894;8.822;2023-12-20T19:37:18;6.80;;;2.37;;
20365;SDS011;10341;49.894;8.822;2023-12-20T19:42:37;8.77;;;2.77;;
20365;SDS011;10341;49.894;8.822;2023-12-20T19:47:58;7.72;;;2.38;;
20365;SDS011;10341;49.894;8.822;2023-12-20T19:53:17;6.53;;;2.70;;
20365;SDS011;10341;49.894;8.822;2023-12-20T19:58:36;10.20;;;3.20;;
20365;SDS011;10341;49.894;8.822;2023-12-20T20:09:15;5.55;;;2.40;;
20365;SDS011;10341;49.894;8.822;2023-12-20T20:14:34;6.65;;;2.70;;
20365;SDS011;10341;49.894;8.822;2023-12-20T20:19:53;5.03;;;2.30;;
20365;SDS011;10341;49.894;8.822;2023-12-20T20:25:13;6.53;;;2.63;;
20365;SDS011;10341;49.894;8.822;2023-12-20T20:30:32;9.07;;;3.10;;
20365;SDS011;10341;49.894;8.822;2023-12-20T20:35:51;5.93;;;2.50;;
20365;SDS011;10341;49.894;8.822;2023-12-20T20:41:10;7.27;;;2.90;;
20365;SDS011;10341;49.894;8.822;2023-12-20T20:46:31;5.22;;;2.50;;
20365;SDS011;10341;49.894;8.822;2023-12-20T20:51:50;6.60;;;3.05;;
20365;SDS011;10341;49.894;8.822;2023-12-20T20:57:09;6.82;;;2.92;;
20365;SDS011;10341;49.894;8.822;2023-12-20T21:02:28;6.40;;;2.77;;
20365;SDS011;10341;49.894;8.822;2023-12-20T21:07:47;4.40;;;2.37;;
20365;SDS011;10341;49.894;8.822;2023-12-20T21:13:07;9.70;;;3.07;;
20365;SDS011;10341;49.894;8.822;2023-12-20T21:18:26;4.67;;;2.67;;
20365;SDS011;10341;49.894;8.822;2023-12-20T21:23:46;7.43;;;2.90;;
20365;SDS011;10341;49.894;8.822;2023-12-20T21:29:05;4.72;;;2.38;;
20365;SDS011;10341;49.894;8.822;2023-12-20T21:34:27;10.98;;;4.72;;
20365;SDS011;10341;49.894;8.822;2023-12-20T21:39:46;5.23;;;2.37;;
20365;SDS011;10341;49.894;8.822;2023-12-20T21:45:05;6.97;;;3.20;;
20365;SDS011;10341;49.894;8.822;2023-12-20T21:50:26;5.55;;;2.10;;
20365;SDS011;10341;49.894;8.822;2023-12-20T21:55:45;4.43;;;2.37;;
20365;SDS011;10341;49.894;8.822;2023-12-20T22:01:04;4.37;;;2.20;;
20365;SDS011;10341;49.894;8.822;2023-12-20T22:06:23;6.63;;;2.73;;
20365;SDS011;10341;49.894;8.822;2023-12-20T22:11:42;4.13;;;1.93;;
20365;SDS011;10341;49.894;8.822;2023-12-20T22:17:02;6.03;;;2.40;;
20365;SDS011;10341;49.894;8.822;2023-12-20T22:22:22;5.20;;;2.40;;
20365;SDS011;10341;49.894;8.822;2023-12-20T22:27:41;3.77;;;2.10;;
20365;SDS011;10341;49.894;8.822;2023-12-20T22:33:00;3.42;;;1.90;;
20365;SDS011;10341;49.894;8.822;2023-12-20T22:38:19;4.30;;;2.40;;
20365;SDS011;10341;49.894;8.822;2023-12-20T22:43:38;3.83;;;1.80;;
20365;SDS011;10341;49.894;8.822;2023-12-20T22:48:59;5.43;;;1.95;;
20365;SDS011;10341;49.894;8.822;2023-12-20T22:54:18;3.30;;;1.90;;
20365;SDS011;10341;49.894;8.822;2023-12-20T22:59:38;3.53;;;2.05;;
20365;SDS011;10341;49.894;8.822;2023-12-20T23:04:59;2.38;;;1.80;;
20365;SDS011;10341;49.894;8.822;2023-12-20T23:10:18;3.90;;;2.10;;
20365;SDS011;10341;49.894;8.822;2023-12-20T23:15:43;4.70;;;2.17;;
20365;SDS011;10341;49.894;8.822;2023-12-20T23:21:03;2.28;;;1.75;;
20365;SDS011;10341;49.894;8.822;2023-12-20T23:26:23;2.63;;;1.90;;
20365;SDS011;10341;49.894;8.822;2023-12-20T23:31:42;4.13;;;1.63;;
20365;SDS011;10341;49.894;8.822;2023-12-20T23:37:01;2.28;;;1.60;;
20365;SDS011;10341;49.894;8.822;2023-12-20T23:42:21;2.35;;;1.45;;
20365;SDS011;10341;49.894;8.822;2023-12-20T23:47:41;2.47;;;1.70;;
20365;SDS011;10341;49.894;8.822;2023-12-20T23:53:00;2.87;;;1.73;;
20365;SDS011;10341;49.894;8.822;2023-12-20T23:58:19;2.23;;;1.50;;
